Time;durP1;ratioP1;P1;durP2;ratioP2;P2;SDS_P1;SDS_P2;PMS_P1;PMS_P2;Temp;Humidity;BMP_temperature;BMP_pressure;BME280_temperature;BME280_humidity;BME280_pressure;Samples;Min_cycle;Max_cycle;Signal;HPM_P1;HPM_P2
2023/09/17 00:00:41;;;;;;;8.07;4.33;;;;;;;22.39;69.97;99504.69;5058060;28;20694;-87
2023/09/17 00:03:07;;;;;;;7.67;3.50;;;;;;;22.26;70.13;99509.50;5058212;28;20173;-87
2023/09/17 00:05:35;;;;;;;7.43;4.10;;;;;;;22.21;70.73;99503.75;5075796;28;20581;-86
2023/09/17 00:08:00;;;;;;;7.27;3.50;;;;;;;22.16;69.67;99506.03;5076257;28;20204;-87
2023/09/17 00:10:26;;;;;;;7.77;4.23;;;;;;;22.14;68.33;99496.47;5076013;28;20237;-87
2023/09/17 00:12:54;;;;;;;8.63;4.07;;;;;;;22.13;67.62;99498.28;5057847;28;20189;-87
2023/09/17 00:15:21;;;;;;;7.30;3.97;;;;;;;22.10;67.30;99495.91;5075560;28;20241;-87
2023/09/17 00:17:48;;;;;;;6.97;3.57;;;;;;;22.09;67.01;99491.53;5075123;28;20181;-87
2023/09/17 00:20:15;;;;;;;7.23;3.80;;;;;;;22.09;67.29;99496.88;5075860;28;20177;-87
2023/09/17 00:22:41;;;;;;;8.13;3.90;;;;;;;22.04;67.04;99483.97;5075241;28;20209;-86
2023/09/17 00:25:07;;;;;;;9.37;3.93;;;;;;;22.01;66.64;99494.94;5075462;28;20287;-87
2023/09/17 00:27:33;;;;;;;6.87;3.90;;;;;;;21.95;65.17;99492.88;5075291;28;20666;-87
2023/09/17 00:29:59;;;;;;;7.77;3.77;;;;;;;21.89;64.43;99495.25;5057851;28;20562;-87
2023/09/17 00:32:26;;;;;;;6.87;2.93;;;;;;;21.85;63.83;99494.69;5075297;28;20173;-87
2023/09/17 00:34:53;;;;;;;9.43;3.40;;;;;;;21.84;63.08;99493.00;5075807;28;20181;-87
2023/09/17 00:37:18;;;;;;;5.87;2.70;;;;;;;21.81;63.11;99487.09;5048790;28;20515;-87
2023/09/17 00:39:45;;;;;;;6.33;3.33;;;;;;;21.70;63.39;99489.91;5055179;28;20181;-87
2023/09/17 00:42:11;;;;;;;6.10;3.70;;;;;;;21.66;63.18;99488.53;5054968;28;20181;-87
2023/09/17 00:44:38;;;;;;;9.77;3.90;;;;;;;21.66;63.25;99493.84;5055104;28;20177;-87
2023/09/17 00:47:06;;;;;;;6.60;3.70;;;;;;;21.60;63.48;99497.06;5055280;28;20658;-87
2023/09/17 00:49:33;;;;;;;6.23;3.60;;;;;;;21.57;63.60;99497.34;5072318;28;20189;-86
2023/09/17 00:52:03;;;;;;;12.17;3.67;;;;;;;21.52;63.83;99488.94;5075257;28;20208;-86
2023/09/17 00:54:30;;;;;;;5.93;3.53;;;;;;;21.46;63.50;99489.53;5074713;28;20634;-87
2023/09/17 00:56:57;;;;;;;8.27;3.40;;;;;;;21.38;63.94;99496.38;5074844;28;20243;-87
2023/09/17 00:59:23;;;;;;;6.10;3.27;;;;;;;21.32;64.37;99493.44;5056614;28;20184;-87
2023/09/17 01:01:50;;;;;;;6.43;3.30;;;;;;;21.29;64.34;99486.56;5057403;28;20239;-87
2023/09/17 01:04:19;;;;;;;5.80;3.53;;;;;;;21.29;64.58;99485.72;5075234;28;20204;-87
2023/09/17 01:06:46;;;;;;;6.00;3.67;;;;;;;21.23;65.20;99488.94;5074345;28;20669;-87
2023/09/17 01:09:14;;;;;;;6.70;3.63;;;;;;;21.17;65.60;99492.19;5075119;28;20331;-87
2023/09/17 01:11:41;;;;;;;6.40;3.67;;;;;;;21.16;65.93;99490.47;5056930;28;20173;-87
2023/09/17 01:14:12;;;;;;;8.67;3.80;;;;;;;21.14;66.14;99495.97;5056525;28;20188;-87
2023/09/17 01:16:45;;;;;;;7.90;4.07;;;;;;;21.22;65.85;99492.59;5074761;28;20176;-87
2023/09/17 01:19:21;;;;;;;6.90;3.30;;;;;;;21.19;65.67;99496.38;5074349;28;20668;-87
2023/09/17 01:22:29;;;;;;;7.07;4.10;;;;;;;21.09;65.62;99489.34;5074646;28;20612;-87
2023/09/17 01:25:22;;;;;;;7.23;3.17;;;;;;;21.01;66.01;99486.50;5044028;28;20208;-87
2023/09/17 01:27:48;;;;;;;7.27;3.67;;;;;;;21.02;66.17;99488.16;5061142;28;20719;-87
2023/09/17 01:30:21;;;;;;;7.50;3.90;;;;;;;21.01;66.67;99482.03;5074158;28;20214;-87
2023/09/17 01:32:48;;;;;;;11.00;4.07;;;;;;;21.00;66.98;99488.31;5074052;28;20338;-87
2023/09/17 01:35:17;;;;;;;6.43;3.50;;;;;;;20.99;67.28;99483.94;5057582;28;20204;-87
2023/09/17 01:37:52;;;;;;;9.37;4.50;;;;;;;20.93;67.83;99478.34;5073978;28;20173;-87
2023/09/17 01:40:20;;;;;;;9.93;4.07;;;;;;;20.92;68.48;99481.97;5073598;28;20333;-87
2023/09/17 01:42:49;;;;;;;8.50;4.00;;;;;;;20.82;69.23;99476.63;5073944;28;20631;-87
2023/09/17 01:45:18;;;;;;;7.70;4.37;;;;;;;20.84;69.57;99474.69;5056032;28;20181;-87
2023/09/17 01:47:47;;;;;;;7.93;3.80;;;;;;;20.90;69.74;99473.28;5073751;28;20285;-87
2023/09/17 01:50:15;;;;;;;8.63;4.40;;;;;;;20.94;69.57;99472.88;5056149;28;20264;-87
2023/09/17 01:52:42;;;;;;;7.30;4.07;;;;;;;21.00;69.54;99475.00;5073652;28;20295;-87
2023/09/17 01:55:08;;;;;;;8.80;3.93;;;;;;;21.00;68.62;99474.13;5073492;28;20652;-87
2023/09/17 01:57:35;;;;;;;9.40;3.70;;;;;;;20.95;67.83;99479.91;5056041;28;20574;-87
2023/09/17 02:00:14;;;;;;;7.90;3.90;;;;;;;20.94;67.28;99490.72;5073420;28;20185;-87
2023/09/17 02:02:49;;;;;;;7.27;4.07;;;;;;;20.86;66.88;99486.03;5074147;28;20176;-87
2023/09/17 02:05:16;;;;;;;10.37;4.70;;;;;;;20.78;66.35;99491.19;5073883;28;20636;-88
2023/09/17 02:07:44;;;;;;;9.43;4.33;;;;;;;20.73;66.19;99478.28;5055548;28;20220;-87
2023/09/17 02:10:11;;;;;;;8.60;4.37;;;;;;;20.72;65.87;99481.09;5055185;28;20185;-87
2023/09/17 02:12:37;;;;;;;8.07;4.60;;;;;;;20.69;65.99;99481.38;5055477;28;20519;-87
2023/09/17 02:15:04;;;;;;;9.33;4.33;;;;;;;20.63;65.73;99481.91;5073407;28;20234;-87
2023/09/17 02:17:30;;;;;;;8.97;4.47;;;;;;;20.59;66.06;99473.38;5073489;28;20173;-87
2023/09/17 02:19:56;;;;;;;8.30;4.50;;;;;;;20.57;66.18;99477.97;5073629;28;20191;-87
2023/09/17 02:22:23;;;;;;;14.77;5.47;;;;;;;20.57;66.45;99474.47;5073910;28;20207;-87
2023/09/17 02:24:49;;;;;;;13.77;6.03;;;;;;;20.58;66.41;99470.81;5070105;28;20181;-87
2023/09/17 02:27:16;;;;;;;12.40;5.20;;;;;;;20.57;66.38;99472.63;5053173;28;20266;-87
2023/09/17 02:29:41;;;;;;;11.73;5.47;;;;;;;20.57;66.17;99471.81;5053372;28;20178;-87
2023/09/17 02:32:09;;;;;;;13.63;5.53;;;;;;;20.52;66.28;99469.53;5055515;28;20173;-87
2023/09/17 02:34:40;;;;;;;10.30;5.37;;;;;;;20.49;66.57;99468.97;5073191;28;20173;-87
2023/09/17 02:37:07;;;;;;;11.67;5.93;;;;;;;20.52;66.65;99471.38;5055630;28;20242;-87
2023/09/17 02:39:35;;;;;;;11.40;4.60;;;;;;;20.50;66.80;99467.97;5053073;28;20173;-87
2023/09/17 02:42:03;;;;;;;7.93;4.97;;;;;;;20.47;66.31;99473.56;5053096;28;20605;-87
2023/09/17 02:44:29;;;;;;;8.27;4.63;;;;;;;20.47;66.01;99460.25;5071706;28;20184;-87
2023/09/17 02:46:56;;;;;;;12.20;4.40;;;;;;;20.41;66.01;99463.50;5055308;28;20204;-87
2023/09/17 02:49:21;;;;;;;10.70;5.07;;;;;;;20.45;65.87;99463.06;5072877;28;20586;-87
2023/09/17 02:51:50;;;;;;;12.30;5.47;;;;;;;20.55;65.56;99465.75;5072964;28;20212;-87
2023/09/17 02:54:15;;;;;;;14.37;6.43;;;;;;;20.51;65.87;99461.69;5073220;28;20223;-87
2023/09/17 02:56:42;;;;;;;9.97;5.90;;;;;;;20.41;66.41;99460.81;5072789;28;20208;-87
2023/09/17 02:59:09;;;;;;;8.10;4.80;;;;;;;20.38;66.82;99461.09;5055299;28;20176;-87
2023/09/17 03:01:35;;;;;;;11.30;6.40;;;;;;;20.31;67.08;99462.63;5073001;28;20271;-87
2023/09/17 03:04:02;;;;;;;10.97;5.17;;;;;;;20.30;67.28;99461.75;5055296;28;20180;-87
2023/09/17 03:06:33;;;;;;;10.10;5.33;;;;;;;20.30;66.87;99459.09;5072727;28;20225;-87
2023/09/17 03:08:59;;;;;;;8.23;4.77;;;;;;;20.27;66.90;99467.34;5072776;28;20200;-87
2023/09/17 03:11:29;;;;;;;11.67;5.60;;;;;;;20.28;66.62;99470.84;5072832;28;20230;-87
2023/09/17 03:13:56;;;;;;;10.30;5.13;;;;;;;20.27;66.46;99474.47;5072674;28;20185;-87
2023/09/17 03:16:23;;;;;;;12.60;5.13;;;;;;;20.22;66.50;99467.72;5072652;28;20181;-87
2023/09/17 03:18:50;;;;;;;8.20;4.33;;;;;;;20.18;66.83;99466.28;5072781;28;20233;-87
2023/09/17 03:21:18;;;;;;;8.90;5.10;;;;;;;20.19;67.17;99470.66;5055344;28;20220;-87
2023/09/17 03:23:44;;;;;;;7.67;4.57;;;;;;;20.25;67.35;99476.44;5076294;28;20177;-87
2023/09/17 03:26:10;;;;;;;9.37;5.83;;;;;;;20.35;66.79;99472.84;5076077;28;20197;-87
2023/09/17 03:28:37;;;;;;;9.40;5.70;;;;;;;20.36;67.21;99471.03;5076530;28;20606;-87
2023/09/17 03:31:04;;;;;;;10.33;5.67;;;;;;;20.38;67.28;99471.75;5076419;28;20650;-87
2023/09/17 03:33:31;;;;;;;13.70;6.37;;;;;;;20.36;67.61;99471.03;5076193;28;20216;-87
2023/09/17 03:35:59;;;;;;;15.23;7.50;;;;;;;20.30;68.22;99479.53;5076398;28;20187;-87
2023/09/17 03:38:26;;;;;;;17.37;8.43;;;;;;;20.31;68.50;99470.59;5076346;28;20222;-87
2023/09/17 03:40:51;;;;;;;16.63;7.20;;;;;;;20.32;68.34;99472.25;5076123;28;20184;-87
2023/09/17 03:43:18;;;;;;;14.63;8.50;;;;;;;20.36;68.09;99479.03;5076219;28;20177;-87
2023/09/17 03:45:45;;;;;;;18.50;8.40;;;;;;;20.38;68.71;99480.56;5058405;28;20267;-87
2023/09/17 03:48:12;;;;;;;25.53;10.27;;;;;;;20.36;68.98;99485.16;5076079;28;20204;-87
2023/09/17 03:50:41;;;;;;;19.53;8.83;;;;;;;20.34;69.59;99480.94;5076355;28;20192;-87
2023/09/17 03:53:07;;;;;;;25.90;10.20;;;;;;;20.31;70.42;99487.38;5076046;28;20217;-87
2023/09/17 03:55:34;;;;;;;19.77;9.47;;;;;;;20.35;70.69;99487.97;5075769;28;20310;-87
2023/09/17 03:58:01;;;;;;;19.07;9.50;;;;;;;20.41;71.33;99482.13;5076224;28;20188;-87
2023/09/17 04:00:27;;;;;;;21.53;9.17;;;;;;;20.46;71.93;99482.56;5075645;28;20647;-87
2023/09/17 04:02:54;;;;;;;31.43;11.33;;;;;;;20.53;72.56;99481.88;5058307;28;20184;-87
2023/09/17 04:05:21;;;;;;;21.50;10.30;;;;;;;20.62;72.51;99489.06;5058150;28;20215;-87
2023/09/17 04:07:48;;;;;;;17.53;10.20;;;;;;;20.67;72.95;99486.00;5075722;28;20189;-87
2023/09/17 04:10:15;;;;;;;20.73;9.70;;;;;;;20.73;73.15;99488.09;5075777;28;20181;-87
2023/09/17 04:12:44;;;;;;;19.87;10.17;;;;;;;20.82;72.91;99484.63;5055743;28;20166;-87
2023/09/17 04:15:20;;;;;;;19.10;9.10;;;;;;;20.88;73.03;99484.09;5056130;28;20260;-87
2023/09/17 04:17:49;;;;;;;20.83;9.10;;;;;;;20.94;73.19;99483.53;5055960;28;20153;-87
2023/09/17 04:20:27;;;;;;;21.47;10.67;;;;;;;21.00;73.17;99482.13;5055552;28;20176;-86
2023/09/17 04:22:52;;;;;;;21.37;8.33;;;;;;;21.07;73.54;99478.00;5055519;28;20166;-87
2023/09/17 04:25:20;;;;;;;18.43;9.73;;;;;;;21.14;73.38;99477.28;5040990;28;20184;-87
2023/09/17 04:27:47;;;;;;;19.93;9.87;;;;;;;21.20;73.79;99487.38;5075199;28;20223;-87
2023/09/17 04:30:14;;;;;;;19.00;8.77;;;;;;;21.29;73.73;99481.22;5074904;28;20264;-87
2023/09/17 04:32:43;;;;;;;14.93;8.43;;;;;;;21.37;73.74;99481.38;5075259;28;20179;-87
2023/09/17 04:35:12;;;;;;;18.27;8.57;;;;;;;21.47;73.21;99480.50;5074640;28;20582;-87
2023/09/17 04:37:40;;;;;;;15.77;8.73;;;;;;;21.51;72.84;99487.28;5075318;28;20177;-87
2023/09/17 04:40:11;;;;;;;14.53;8.60;;;;;;;21.50;71.82;99482.91;5075184;28;20192;-87
2023/09/17 04:42:40;;;;;;;27.30;11.63;;;;;;;21.51;71.51;99490.78;5075742;28;20181;-87
2023/09/17 04:45:08;;;;;;;18.17;9.33;;;;;;;21.54;71.29;99484.31;5074888;28;20593;-87
2023/09/17 04:47:37;;;;;;;16.87;9.80;;;;;;;21.59;71.43;99487.41;5057345;28;20229;-87
2023/09/17 04:50:04;;;;;;;21.90;10.33;;;;;;;21.65;71.22;99493.00;5075066;28;20181;-87
2023/09/17 04:52:31;;;;;;;18.73;10.47;;;;;;;21.68;70.95;99491.88;5057363;28;20185;-86
2023/09/17 04:54:56;;;;;;;19.87;10.13;;;;;;;21.79;70.87;99495.25;5074438;28;20197;-87
2023/09/17 04:57:21;;;;;;;23.27;10.30;;;;;;;21.85;70.50;99494.69;5075162;28;20172;-87
2023/09/17 04:59:49;;;;;;;19.50;10.80;;;;;;;21.94;70.50;99503.66;5074870;28;20181;-87
2023/09/17 05:02:16;;;;;;;15.47;9.53;;;;;;;21.99;71.07;99496.91;5075305;28;20177;-87
2023/09/17 05:04:44;;;;;;;17.77;9.57;;;;;;;22.07;70.82;99493.53;5074731;28;20657;-87
2023/09/17 05:07:11;;;;;;;16.27;9.63;;;;;;;22.12;70.97;99496.59;5056838;28;20212;-87
2023/09/17 05:09:37;;;;;;;19.37;9.17;;;;;;;22.20;71.04;99494.06;5074700;28;20188;-87
2023/09/17 05:12:05;;;;;;;18.30;9.70;;;;;;;22.25;71.26;99497.13;5074360;28;20516;-87
2023/09/17 05:14:32;;;;;;;17.30;8.93;;;;;;;22.33;71.20;99501.72;5073901;28;20192;-87
2023/09/17 05:16:57;;;;;;;18.70;9.30;;;;;;;22.41;70.85;99508.03;5074775;28;20173;-87
2023/09/17 05:19:24;;;;;;;15.03;9.03;;;;;;;22.51;70.66;99505.34;5074690;28;20184;-87
2023/09/17 05:21:51;;;;;;;14.97;9.63;;;;;;;22.54;70.75;99502.34;5074070;28;20286;-87
2023/09/17 05:24:17;;;;;;;15.53;10.20;;;;;;;22.61;70.56;99506.97;5074275;28;20520;-87
2023/09/17 05:26:43;;;;;;;19.67;10.07;;;;;;;22.74;70.48;99508.50;5074125;28;20278;-87
2023/09/17 05:29:15;;;;;;;17.37;9.50;;;;;;;22.81;70.22;99509.59;5074255;28;20623;-87
2023/09/17 05:31:42;;;;;;;17.70;8.83;;;;;;;22.87;70.41;99507.16;5074052;28;20188;-87
2023/09/17 05:34:08;;;;;;;14.63;8.63;;;;;;;22.91;70.28;99505.03;5074173;28;20177;-87
2023/09/17 05:36:34;;;;;;;17.80;8.47;;;;;;;22.97;70.93;99509.78;5073808;28;20188;-87
2023/09/17 05:39:00;;;;;;;15.17;8.03;;;;;;;23.08;70.98;99515.78;5056759;28;20185;-87
2023/09/17 05:41:25;;;;;;;13.33;8.20;;;;;;;23.26;71.33;99515.78;5073866;28;20181;-87
2023/09/17 05:43:52;;;;;;;17.47;8.17;;;;;;;23.45;70.78;99515.69;5073972;28;20611;-87
2023/09/17 05:46:18;;;;;;;12.03;6.73;;;;;;;23.58;70.71;99505.44;5072691;28;20200;-87
2023/09/17 05:48:44;;;;;;;14.40;7.23;;;;;;;23.75;70.17;99509.91;5073902;28;20642;-87
2023/09/17 05:51:10;;;;;;;12.17;6.10;;;;;;;23.88;69.61;99506.81;5056221;28;20276;-87
2023/09/17 05:53:37;;;;;;;12.27;5.73;;;;;;;24.11;68.83;99505.34;5073384;28;20252;-87
2023/09/17 05:56:04;;;;;;;9.43;5.27;;;;;;;24.17;68.30;99515.44;5073629;28;20189;-87
2023/09/17 05:58:31;;;;;;;11.17;5.70;;;;;;;24.26;67.95;99516.34;5073846;28;20189;-87
2023/09/17 06:00:57;;;;;;;11.00;4.87;;;;;;;24.39;67.84;99514.94;5073929;28;20308;-86
2023/09/17 06:03:23;;;;;;;9.23;5.60;;;;;;;24.48;67.39;99515.78;5068398;28;20178;-87
2023/09/17 06:05:49;;;;;;;11.47;4.80;;;;;;;24.51;67.09;99506.59;5053797;28;20166;-87
2023/09/17 06:08:15;;;;;;;8.10;4.07;;;;;;;24.56;67.13;99515.84;5057938;28;20299;-86
2023/09/17 06:10:42;;;;;;;9.57;5.20;;;;;;;24.65;66.78;99517.56;5056419;28;20295;-87
2023/09/17 06:13:08;;;;;;;12.47;5.77;;;;;;;24.79;66.82;99522.34;5055806;28;20181;-87
2023/09/17 06:15:35;;;;;;;7.27;4.50;;;;;;;24.89;66.61;99517.72;5073473;28;20637;-87
2023/09/17 06:18:01;;;;;;;10.83;5.10;;;;;;;25.01;66.20;99519.06;5073346;28;20534;-87
2023/09/17 06:20:27;;;;;;;65.07;23.70;;;;;;;25.24;65.17;99521.13;5073314;28;20177;-87
2023/09/17 06:22:52;;;;;;;27.33;13.13;;;;;;;25.20;65.23;99533.22;5055514;28;20693;-87
2023/09/17 06:25:19;;;;;;;24.67;9.53;;;;;;;25.23;66.01;99520.31;5073578;28;20177;-87
2023/09/17 06:27:45;;;;;;;13.50;5.93;;;;;;;25.43;66.07;99523.53;5072753;28;20681;-86
2023/09/17 06:30:11;;;;;;;11.03;5.13;;;;;;;25.85;63.96;99516.22;5073547;28;20184;-86
2023/09/17 06:32:37;;;;;;;11.00;5.50;;;;;;;26.33;62.16;99520.72;5073085;28;20603;-87
2023/09/17 06:35:05;;;;;;;9.80;5.40;;;;;;;26.53;60.35;99519.31;5073239;28;20185;-86
2023/09/17 06:37:31;;;;;;;10.97;6.23;;;;;;;26.72;59.28;99531.53;5072767;28;20185;-86
2023/09/17 06:39:58;;;;;;;18.98;6.68;;;;;;;26.73;59.21;99533.19;5055559;28;20181;-87
2023/09/17 06:42:25;;;;;;;14.73;6.50;;;;;;;26.77;59.14;99531.88;5073162;28;20706;-87
2023/09/17 06:44:51;;;;;;;10.93;6.33;;;;;;;26.74;59.63;99524.97;5073118;28;20181;-87
2023/09/17 06:47:18;;;;;;;16.70;7.97;;;;;;;26.88;60.03;99525.28;5073276;28;20192;-87
2023/09/17 06:49:44;;;;;;;14.43;7.03;;;;;;;26.87;58.86;99534.34;5072769;28;20212;-87
2023/09/17 06:52:11;;;;;;;14.60;6.23;;;;;;;27.09;60.40;99526.34;5073078;28;20189;-87
2023/09/17 06:54:36;;;;;;;61.97;26.93;;;;;;;27.54;58.72;99527.47;5073115;28;20233;-87
2023/09/17 06:57:04;;;;;;;22.65;9.70;;;;;;;28.11;57.91;99519.78;5074820;28;20172;-87
2023/09/17 06:59:30;;;;;;;10.55;5.50;;;;;;;28.50;54.34;99517.66;5077640;28;20200;-87
2023/09/17 07:01:56;;;;;;;8.85;4.80;;;;;;;28.88;52.88;99523.84;5076921;28;20184;-87
2023/09/17 07:04:24;;;;;;;7.97;4.82;;;;;;;29.08;53.67;99517.66;5077037;28;20169;-87
2023/09/17 07:06:50;;;;;;;10.57;5.80;;;;;;;29.56;50.81;99524.22;5076848;28;20211;-88
2023/09/17 07:09:16;;;;;;;12.70;6.35;;;;;;;29.88;50.63;99522.91;5077079;28;20177;-87
2023/09/17 07:11:43;;;;;;;7.22;4.28;;;;;;;30.10;48.39;99521.84;5076851;28;20263;-88
2023/09/17 07:14:09;;;;;;;7.00;4.13;;;;;;;29.95;49.59;99515.72;5077088;28;20184;-87
2023/09/17 07:16:37;;;;;;;9.77;3.65;;;;;;;30.01;49.52;99519.47;5076458;28;20189;-87
2023/09/17 07:19:06;;;;;;;7.10;4.05;;;;;;;29.90;47.59;99520.84;5076741;28;20238;-88
2023/09/17 07:21:32;;;;;;;71.40;33.22;;;;;;;30.09;47.50;99522.88;5070516;28;20185;-88
2023/09/17 07:23:58;;;;;;;18.38;8.25;;;;;;;30.29;47.36;99520.34;5056781;28;20208;-87
2023/09/17 07:26:25;;;;;;;16.80;7.10;;;;;;;30.54;47.99;99516.16;5068220;28;20332;-88
2023/09/17 07:28:51;;;;;;;9.13;3.72;;;;;;;30.65;46.18;99512.88;5076535;28;20177;-88
2023/09/17 07:31:17;;;;;;;6.97;3.33;;;;;;;30.61;45.30;99522.44;5076278;28;20199;-88
2023/09/17 07:33:44;;;;;;;5.43;3.00;;;;;;;30.45;44.80;99522.78;5076724;28;20524;-88
2023/09/17 07:36:11;;;;;;;9.63;3.28;;;;;;;30.16;45.63;99518.34;5076081;28;20188;-87
2023/09/17 07:38:37;;;;;;;7.03;3.35;;;;;;;30.12;46.27;99517.09;5076336;28;20314;-88
2023/09/17 07:41:04;;;;;;;5.25;2.95;;;;;;;30.22;46.24;99524.84;5076222;28;20328;-88
2023/09/17 07:43:30;;;;;;;4.57;2.97;;;;;;;30.36;46.18;99513.13;5075984;28;20255;-88
2023/09/17 07:45:57;;;;;;;6.32;3.65;;;;;;;30.49;47.04;99518.63;5076251;28;20218;-88
2023/09/17 07:48:26;;;;;;;6.80;3.72;;;;;;;30.63;46.33;99520.38;5075892;28;20192;-88
2023/09/17 07:51:01;;;;;;;6.72;2.92;;;;;;;30.75;45.07;99521.47;5075963;28;20226;-89
2023/09/17 07:53:28;;;;;;;4.70;3.13;;;;;;;30.84;44.61;99522.16;5076184;28;20671;-88
2023/09/17 07:55:53;;;;;;;5.22;3.25;;;;;;;30.75;44.13;99521.47;5075709;28;20258;-88
2023/09/17 07:58:19;;;;;;;8.45;3.58;;;;;;;30.72;44.54;99515.63;5076012;28;20255;-88
2023/09/17 08:00:46;;;;;;;7.70;3.90;;;;;;;30.67;44.77;99516.22;5075865;28;20208;-88
2023/09/17 08:03:19;;;;;;;5.53;3.70;;;;;;;30.49;45.33;99518.63;5076141;28;20165;-88
2023/09/17 08:05:49;;;;;;;5.72;3.53;;;;;;;30.35;45.26;99508.69;5075858;28;20207;-88
2023/09/17 08:08:16;;;;;;;7.50;4.22;;;;;;;30.29;44.41;99512.22;5074547;28;20208;-87
2023/09/17 08:10:44;;;;;;;9.05;3.55;;;;;;;30.22;44.65;99508.59;5075777;28;20201;-88
2023/09/17 08:13:11;;;;;;;6.38;3.67;;;;;;;30.05;45.74;99507.25;5060082;28;20192;-88
2023/09/17 08:15:37;;;;;;;7.47;4.70;;;;;;;30.38;45.16;99503.78;5061535;28;20619;-89
2023/09/17 08:18:05;;;;;;;8.77;4.50;;;;;;;30.56;44.66;99500.53;5057968;28;20528;-88
2023/09/17 08:20:30;;;;;;;9.88;4.65;;;;;;;30.57;44.27;99502.22;5075579;28;20234;-88
2023/09/17 08:22:56;;;;;;;6.65;4.60;;;;;;;30.55;44.10;99498.06;5075388;28;20181;-88
2023/09/17 08:25:22;;;;;;;10.15;4.30;;;;;;;30.71;43.03;99495.03;5075222;28;20252;-88
2023/09/17 08:27:51;;;;;;;7.65;4.50;;;;;;;30.61;43.32;99503.47;5075411;28;20272;-88
2023/09/17 08:30:17;;;;;;;8.93;4.93;;;;;;;30.40;44.55;99490.88;5075172;28;20188;-88
2023/09/17 08:32:44;;;;;;;8.10;5.00;;;;;;;30.50;44.79;99490.53;5057758;28;20173;-88
2023/09/17 08:35:14;;;;;;;7.72;4.65;;;;;;;30.55;43.48;99495.34;5057555;28;20592;-88
2023/09/17 08:37:42;;;;;;;8.13;4.38;;;;;;;30.55;42.60;99488.06;5075365;28;20173;-88
2023/09/17 08:40:13;;;;;;;8.30;5.68;;;;;;;30.60;42.81;99488.31;5075244;28;20696;-89
2023/09/17 08:42:43;;;;;;;13.70;6.47;;;;;;;30.36;43.77;99486.06;5075554;28;20521;-88
2023/09/17 08:45:11;;;;;;;14.88;7.22;;;;;;;30.43;42.62;99490.47;5057907;28;20208;-88
2023/09/17 08:47:38;;;;;;;11.70;6.68;;;;;;;30.37;43.19;99485.88;5075555;28;20193;-88
2023/09/17 08:50:09;;;;;;;19.50;10.65;;;;;;;30.29;43.34;99485.97;5075081;28;20177;-88
2023/09/17 08:52:41;;;;;;;27.38;16.80;;;;;;;30.27;43.26;99476.41;5074702;28;20207;-87
2023/09/17 08:55:09;;;;;;;24.50;14.38;;;;;;;30.28;42.79;99478.09;5075080;28;20229;-87
2023/09/17 08:57:37;;;;;;;22.83;13.38;;;;;;;30.32;43.17;99474.78;5074978;28;20192;-88
2023/09/17 09:00:09;;;;;;;24.20;14.48;;;;;;;30.16;43.83;99479.69;5074794;28;20180;-88
2023/09/17 09:02:48;;;;;;;24.85;14.88;;;;;;;30.41;43.16;99470.06;5075404;28;20158;-88
2023/09/17 09:05:17;;;;;;;22.95;12.68;;;;;;;30.65;42.26;99474.16;5074658;28;20249;-88
2023/09/17 09:07:46;;;;;;;25.63;14.75;;;;;;;30.83;41.96;99467.16;5074560;28;20195;-88
2023/09/17 09:10:14;;;;;;;23.58;13.98;;;;;;;30.64;41.83;99472.47;5074712;28;20177;-89
2023/09/17 09:12:42;;;;;;;27.63;15.13;;;;;;;30.54;42.41;99472.84;5074897;28;20234;-89
2023/09/17 09:15:10;;;;;;;25.95;15.27;;;;;;;30.51;43.47;99475.13;5074607;28;20215;-89
2023/09/17 09:17:35;;;;;;;27.60;15.75;;;;;;;30.51;43.16;99473.25;5056906;28;20264;-88
2023/09/17 09:20:04;;;;;;;25.83;14.70;;;;;;;30.46;43.22;99473.00;5074174;28;20612;-88
2023/09/17 09:22:30;;;;;;;23.67;13.65;;;;;;;30.63;42.87;99463.56;5074357;28;20169;-87
2023/09/17 09:24:55;;;;;;;23.55;12.93;;;;;;;30.72;42.33;99465.03;5074361;28;20169;-87
2023/09/17 09:27:21;;;;;;;16.95;10.45;;;;;;;30.62;42.34;99455.63;5074218;28;20280;-88
2023/09/17 09:29:47;;;;;;;14.38;9.73;;;;;;;30.93;40.96;99462.25;5074248;28;20195;-88
2023/09/17 09:32:17;;;;;;;14.20;8.38;;;;;;;31.23;40.88;99464.63;5074159;28;20169;-87
2023/09/17 09:34:48;;;;;;;19.23;10.60;;;;;;;31.36;41.41;99465.47;5062745;28;20631;-88
2023/09/17 09:37:13;;;;;;;14.00;8.38;;;;;;;31.51;39.53;99459.91;5054417;28;20614;-88
2023/09/17 09:39:43;;;;;;;10.15;6.78;;;;;;;31.51;39.74;99459.91;5071598;28;20181;-88
2023/09/17 09:42:11;;;;;;;10.48;6.95;;;;;;;31.34;40.40;99459.41;5073850;28;20264;-88
2023/09/17 09:44:38;;;;;;;10.27;6.03;;;;;;;31.38;40.12;99455.28;5073968;28;20169;-88
2023/09/17 09:47:05;;;;;;;10.35;6.07;;;;;;;31.36;39.61;99454.66;5073814;28;20565;-87
2023/09/17 09:49:42;;;;;;;9.35;5.60;;;;;;;31.72;38.66;99448.88;5073814;28;20191;-89
2023/09/17 09:52:07;;;;;;;10.05;6.63;;;;;;;31.94;38.20;99449.50;5073784;28;20175;-88
2023/09/17 09:54:34;;;;;;;16.05;7.15;;;;;;;32.23;37.83;99449.88;5073493;28;20176;-87
2023/09/17 09:57:04;;;;;;;11.93;7.43;;;;;;;32.46;37.60;99452.13;5073915;28;20641;-88
2023/09/17 09:59:36;;;;;;;9.32;6.57;;;;;;;32.51;37.19;99446.06;5073513;28;20162;-88
2023/09/17 10:02:04;;;;;;;10.00;6.70;;;;;;;32.60;36.44;99442.09;5073417;28;20188;-88
2023/09/17 10:04:31;;;;;;;13.63;8.45;;;;;;;32.77;37.14;99440.56;5073520;28;20260;-88
2023/09/17 10:06:58;;;;;;;10.65;5.65;;;;;;;32.86;36.09;99444.72;5073335;28;20197;-88
2023/09/17 10:09:27;;;;;;;10.90;5.20;;;;;;;32.54;35.43;99437.53;5073566;28;20173;-88
2023/09/17 10:11:53;;;;;;;7.03;4.75;;;;;;;32.17;37.24;99434.47;5073199;28;20611;-88
2023/09/17 10:14:21;;;;;;;8.57;4.78;;;;;;;32.49;38.09;99432.72;5073440;28;20173;-88
2023/09/17 10:16:49;;;;;;;8.90;5.22;;;;;;;32.67;36.62;99429.31;5073707;28;20169;-88
2023/09/17 10:19:19;;;;;;;12.15;5.93;;;;;;;32.60;36.03;99428.53;5071470;28;20258;-87
2023/09/17 10:21:51;;;;;;;12.32;6.03;;;;;;;32.65;36.31;99423.28;5053241;28;20169;-87
2023/09/17 10:24:18;;;;;;;10.32;6.35;;;;;;;32.57;36.18;99426.25;5054613;28;20220;-88
2023/09/17 10:26:45;;;;;;;10.93;7.15;;;;;;;32.63;36.05;99420.78;5073167;28;20199;-88
2023/09/17 10:29:15;;;;;;;11.65;6.68;;;;;;;32.63;35.77;99423.47;5072889;28;20173;-88
2023/09/17 10:31:41;;;;;;;9.40;5.78;;;;;;;32.81;35.31;99420.06;5072648;28;20180;-88
2023/09/17 10:34:12;;;;;;;12.75;6.32;;;;;;;33.03;33.92;99415.13;5055796;28;20181;-88
2023/09/17 10:36:42;;;;;;;8.18;5.25;;;;;;;32.83;34.11;99422.56;5073276;28;20176;-88
2023/09/17 10:39:10;;;;;;;7.18;4.53;;;;;;;32.60;34.95;99417.66;5073446;28;20669;-88
2023/09/17 10:41:44;;;;;;;8.52;4.82;;;;;;;32.56;35.07;99419.13;5073416;28;20248;-88
2023/09/17 10:44:13;;;;;;;9.15;4.90;;;;;;;32.48;35.05;99408.47;5072998;28;20181;-88
2023/09/17 10:46:43;;;;;;;5.20;3.17;;;;;;;32.41;34.79;99411.22;5072743;28;20287;-88
2023/09/17 10:49:11;;;;;;;7.53;3.53;;;;;;;32.72;33.20;99422.22;5055478;28;20223;-88
2023/09/17 10:51:39;;;;;;;6.72;4.38;;;;;;;32.90;34.65;99409.78;5055230;28;20210;-88
2023/09/17 10:54:06;;;;;;;7.97;3.28;;;;;;;32.94;34.77;99409.13;5073022;28;20173;-88
2023/09/17 10:56:33;;;;;;;10.40;3.40;;;;;;;33.13;35.65;99400.06;5064443;28;20236;-88
2023/09/17 10:58:59;;;;;;;4.95;3.13;;;;;;;33.23;34.15;99392.25;5053499;28;20631;-88
2023/09/17 11:01:30;;;;;;;8.00;3.40;;;;;;;33.44;34.59;99387.53;5070709;28;20208;-88
2023/09/17 11:04:07;;;;;;;7.95;3.40;;;;;;;33.62;34.54;99393.03;5073290;28;20680;-88
2023/09/17 11:06:35;;;;;;;6.05;3.22;;;;;;;33.94;32.99;99378.28;5055108;28;20205;-88
2023/09/17 11:09:04;;;;;;;7.85;3.75;;;;;;;33.88;33.32;99381.91;5055378;28;20615;-88
2023/09/17 11:11:34;;;;;;;24.05;4.05;;;;;;;34.00;32.32;99372.78;5072838;28;20630;-89
2023/09/17 11:14:01;;;;;;;8.02;3.40;;;;;;;33.96;33.38;99373.47;5073145;28;20157;-88
2023/09/17 11:16:29;;;;;;;6.95;3.50;;;;;;;34.15;31.95;99374.31;5072826;28;20591;-88
2023/09/17 11:19:11;;;;;;;12.40;4.22;;;;;;;34.14;32.53;99378.13;5073049;28;20208;-89
2023/09/17 11:21:39;;;;;;;8.05;3.47;;;;;;;34.17;32.27;99374.94;5055448;28;20549;-88
2023/09/17 11:24:10;;;;;;;7.18;3.83;;;;;;;34.13;32.73;99371.84;5072495;28;20687;-89
2023/09/17 11:26:40;;;;;;;8.05;4.20;;;;;;;33.99;32.13;99364.84;5072962;28;20249;-87
2023/09/17 11:29:06;;;;;;;6.15;4.00;;;;;;;33.83;33.46;99362.72;5072560;28;20650;-88
2023/09/17 11:31:53;;;;;;;5.68;3.22;;;;;;;33.97;33.63;99367.78;5072673;28;20196;-88